Decoded Metar for KEIK ( in ) (IATA:) | Meteo·Mobile Aviation Weather
aviador You're here:

KEIK Decoded Metar

in
Report Time2018-10-23 11:36:00
UTC Time2018-10-23 11:55:26
Flight Rules vfr VFR
WindCalm
Visibility9999 m
Phenomena:N/A
Clouds:N/A
Expected CloudBase > 800 ft AGL from Temp-Dew spread
CeilingNone
Temp05°C
Dew Point03°C (87% RH)
AAT3.5°C
QNH1025 hPa
Raw Report
KEIK 231136Z AUTO 00000KT 10SM CLR 05/03 A3028 RMK AO2
T00500030=

Extra information for KEIK:More info

Social comments